Time;durP1;ratioP1;P1;durP2;ratioP2;P2;SDS_P1;SDS_P2;PMS_P1;PMS_P2;Temp;Humidity;BMP_temperature;BMP_pressure;BME280_temperature;BME280_humidity;BME280_pressure;Samples;Min_cycle;Max_cycle;Signal;HPM_P1;HPM_P2
2021/01/10 00:04:09;;;;;;;55.42;21.77;;;;;;;0.21;77.57;100758.41;10137880;29;20053;-69
2021/01/10 00:09:11;;;;;;;45.65;20.65;;;;;;;0.48;77.44;100761.59;10137880;29;20049;-74
2021/01/10 00:14:12;;;;;;;55.47;22.17;;;;;;;0.43;77.53;100767.50;10138838;29;20056;-68
2021/01/10 00:19:14;;;;;;;55.85;22.30;;;;;;;0.37;77.76;100768.25;10137777;29;20132;-69
2021/01/10 00:24:15;;;;;;;63.03;22.92;;;;;;;0.34;77.60;100769.91;10145441;29;20127;-69
2021/01/10 00:29:16;;;;;;;48.28;20.48;;;;;;;0.28;77.79;100770.66;10145948;29;20055;-69
2021/01/10 00:34:17;;;;;;;53.95;22.73;;;;;;;0.38;77.35;100770.00;10145550;29;20450;-69
2021/01/10 00:39:18;;;;;;;57.35;22.40;;;;;;;0.36;77.63;100770.81;10145136;29;20083;-68
2021/01/10 00:44:20;;;;;;;60.72;23.02;;;;;;;0.34;77.66;100773.34;10145264;29;20086;-68
2021/01/10 00:49:25;;;;;;;61.97;23.42;;;;;;;0.35;77.37;100780.28;10145184;29;20528;-68
2021/01/10 00:54:27;;;;;;;58.90;22.98;;;;;;;0.44;77.40;100774.41;10145347;29;20053;-68
2021/01/10 00:59:29;;;;;;;54.97;22.20;;;;;;;0.42;77.47;100776.13;10143086;29;20044;-69
2021/01/10 01:04:33;;;;;;;67.97;24.67;;;;;;;0.16;78.00;100773.84;10142972;29;20045;-69
2021/01/10 01:09:36;;;;;;;58.08;23.13;;;;;;;0.13;78.58;100778.94;10142103;29;20045;-68
2021/01/10 01:14:45;;;;;;;60.22;22.52;;;;;;;0.15;78.34;100779.84;10143225;29;20056;-68
2021/01/10 01:19:46;;;;;;;58.63;22.27;;;;;;;0.14;78.38;100793.63;10143357;29;20041;-70
2021/01/10 01:24:48;;;;;;;54.40;22.83;;;;;;;0.27;77.84;100794.78;10143285;29;20514;-68
2021/01/10 01:29:49;;;;;;;73.30;25.23;;;;;;;0.01;78.35;100794.19;10142944;29;20036;-68
2021/01/10 01:34:50;;;;;;;62.42;22.15;;;;;;;0.39;77.91;100794.16;10141547;29;20056;-68
2021/01/10 01:39:52;;;;;;;46.75;21.40;;;;;;;0.39;77.44;100783.81;10142771;29;20045;-68
2021/01/10 01:44:53;;;;;;;43.38;20.70;;;;;;;0.44;77.02;100788.25;10143476;29;20053;-68
2021/01/10 01:49:55;;;;;;;55.45;21.98;;;;;;;0.19;77.45;100781.66;10141896;29;20056;-70
2021/01/10 01:54:56;;;;;;;57.35;21.02;;;;;;;0.08;77.71;100785.72;10142699;29;20052;-69
2021/01/10 01:59:57;;;;;;;55.20;20.95;;;;;;;-0.01;78.03;100785.50;10142702;29;20052;-68
2021/01/10 02:05:05;;;;;;;51.67;19.95;;;;;;;0.07;77.79;100786.56;10142091;29;20563;-68
2021/01/10 02:10:12;;;;;;;45.05;20.20;;;;;;;0.22;77.24;100791.19;10142415;29;20096;-68
2021/01/10 02:15:16;;;;;;;33.03;15.32;;;;;;;0.24;77.39;100797.28;10143642;29;20115;-69
2021/01/10 02:20:31;;;;;;;41.28;19.00;;;;;;;0.38;76.80;100801.03;10141631;29;20513;-68
2021/01/10 02:25:35;;;;;;;33.60;17.85;;;;;;;0.30;76.82;100799.13;10141806;29;20058;-67
2021/01/10 02:30:41;;;;;;;49.15;20.75;;;;;;;0.22;77.16;100805.00;10141474;29;20093;-69
2021/01/10 02:35:43;;;;;;;45.17;20.80;;;;;;;0.23;77.03;100811.06;10141957;29;20052;-68
2021/01/10 02:41:03;;;;;;;54.47;22.05;;;;;;;0.05;77.46;100810.63;10173689;23;20071;-68
2021/01/10 02:46:06;;;;;;;49.22;20.58;;;;;;;0.18;77.11;100799.75;10177497;29;20398;-68
2021/01/10 02:51:08;;;;;;;35.63;19.02;;;;;;;0.23;76.94;100803.31;10177515;29;20482;-67
2021/01/10 02:56:09;;;;;;;41.22;21.45;;;;;;;0.29;76.65;100803.41;10178358;29;20095;-67
2021/01/10 03:01:14;;;;;;;39.47;19.73;;;;;;;0.16;77.14;100810.03;10177459;29;20454;-67
2021/01/10 03:06:16;;;;;;;36.97;19.17;;;;;;;0.04;77.23;100811.44;10177370;29;20059;-68
2021/01/10 03:11:18;;;;;;;32.97;18.75;;;;;;;0.18;76.62;100804.91;10176807;29;20044;-67
2021/01/10 03:16:21;;;;;;;40.78;19.95;;;;;;;0.07;76.92;100808.94;10176609;29;20422;-67
2021/01/10 03:21:23;;;;;;;31.02;16.73;;;;;;;0.33;76.00;100800.06;10175019;29;20055;-67
2021/01/10 03:26:24;;;;;;;35.22;19.00;;;;;;;0.12;76.14;100808.22;10176036;29;20044;-68
2021/01/10 03:31:25;;;;;;;31.45;17.33;;;;;;;0.11;76.67;100803.88;10176130;29;20494;-66
2021/01/10 03:36:27;;;;;;;35.67;18.02;;;;;;;0.28;76.10;100806.84;10176144;29;20055;-67
2021/01/10 03:41:28;;;;;;;43.25;19.73;;;;;;;0.46;75.65;100802.06;10175822;29;20042;-67
2021/01/10 03:46:29;;;;;;;37.90;19.02;;;;;;;0.41;75.49;100803.69;10176148;29;20103;-67
2021/01/10 03:51:31;;;;;;;42.38;20.52;;;;;;;0.34;75.51;100794.03;10175167;29;20048;-67
2021/01/10 03:56:33;;;;;;;36.65;19.52;;;;;;;0.38;75.53;100806.22;10182966;29;20050;-67
2021/01/10 04:01:35;;;;;;;43.33;20.23;;;;;;;0.12;76.41;100804.75;10188187;29;20044;-67
2021/01/10 04:06:36;;;;;;;38.95;19.48;;;;;;;-0.04;77.01;100803.53;10187976;29;20083;-67
2021/01/10 04:11:38;;;;;;;33.88;18.38;;;;;;;0.22;76.29;100805.00;10187758;29;20076;-67
2021/01/10 04:16:39;;;;;;;43.30;20.13;;;;;;;0.13;76.60;100807.38;10188451;29;20111;-67
2021/01/10 04:21:40;;;;;;;35.15;18.55;;;;;;;0.20;76.47;100811.84;10187947;29;20138;-67
2021/01/10 04:26:47;;;;;;;34.72;18.45;;;;;;;0.43;75.65;100808.88;10187905;29;20115;-67
2021/01/10 04:31:49;;;;;;;36.63;20.17;;;;;;;0.06;76.01;100808.09;10186760;29;20051;-67
2021/01/10 04:36:51;;;;;;;35.83;18.63;;;;;;;0.15;75.88;100810.00;10187351;29;20044;-67
2021/01/10 04:41:53;;;;;;;29.40;19.13;;;;;;;0.31;75.60;100812.09;10187071;29;20072;-67
2021/01/10 04:46:54;;;;;;;34.25;19.45;;;;;;;0.30;75.69;100812.03;10188190;29;20052;-68
2021/01/10 04:52:02;;;;;;;38.92;19.60;;;;;;;0.15;75.96;100825.53;10187155;29;20128;-66
2021/01/10 04:57:07;;;;;;;50.05;21.55;;;;;;;-0.04;76.77;100826.81;10186745;29;20132;-66
2021/01/10 05:02:09;;;;;;;44.28;20.33;;;;;;;0.04;76.51;100832.13;10188436;29;20478;-67
2021/01/10 05:07:14;;;;;;;34.63;18.45;;;;;;;0.27;75.82;100833.56;10184668;29;20415;-66
2021/01/10 05:12:15;;;;;;;38.88;20.00;;;;;;;0.14;76.35;100831.53;10181352;29;20462;-67
2021/01/10 05:17:20;;;;;;;32.30;17.67;;;;;;;0.44;75.68;100837.41;10180433;29;20059;-68
2021/01/10 05:22:22;;;;;;;35.90;18.98;;;;;;;0.26;75.51;100836.97;10180548;29;20050;-67
2021/01/10 05:27:36;;;;;;;34.00;19.88;;;;;;;0.18;75.60;100846.28;10180080;29;20119;-67
2021/01/10 05:32:38;;;;;;;31.20;18.27;;;;;;;0.17;75.99;100855.72;10179383;29;20044;-67
2021/01/10 05:37:53;;;;;;;32.15;18.48;;;;;;;0.16;76.12;100861.75;10178378;29;20044;-67
2021/01/10 05:42:57;;;;;;;32.75;18.33;;;;;;;0.40;75.27;100856.28;10177011;29;20082;-67
2021/01/10 05:48:08;;;;;;;27.23;18.20;;;;;;;0.46;74.54;100853.81;10178163;29;20079;-67
2021/01/10 05:53:15;;;;;;;28.40;18.83;;;;;;;0.18;75.78;100839.41;10178267;29;20123;-65
2021/01/10 05:58:16;;;;;;;28.63;18.25;;;;;;;0.38;75.09;100841.53;10178308;29;20083;-67
2021/01/10 06:03:23;;;;;;;40.08;19.90;;;;;;;0.41;75.01;100842.50;10182271;29;20127;-67
2021/01/10 06:08:34;;;;;;;45.10;21.73;;;;;;;0.32;75.59;100844.88;10180525;29;20072;-66
2021/01/10 06:13:46;;;;;;;33.50;19.92;;;;;;;0.41;75.50;100841.63;10180929;29;20455;-67
2021/01/10 06:18:54;;;;;;;50.95;23.33;;;;;;;0.01;76.58;100851.03;10180580;29;20063;-67
2021/01/10 06:23:58;;;;;;;43.60;21.63;;;;;;;-0.01;76.89;100857.88;10180330;29;20072;-67
2021/01/10 06:29:03;;;;;;;53.42;24.13;;;;;;;-0.03;77.05;100859.56;10178864;29;20548;-67
2021/01/10 06:34:08;;;;;;;59.22;24.95;;;;;;;0.01;76.72;100861.38;10179292;29;20569;-67
2021/01/10 06:39:14;;;;;;;49.20;22.40;;;;;;;0.31;76.08;100858.66;10177374;29;20048;-67
2021/01/10 06:44:19;;;;;;;46.10;22.83;;;;;;;0.28;75.50;100853.41;10180965;29;20549;-67
2021/01/10 06:49:21;;;;;;;48.63;23.42;;;;;;;0.16;75.71;100856.56;10179881;29;20056;-66
2021/01/10 06:54:24;;;;;;;45.75;22.92;;;;;;;0.29;75.40;100856.84;10176220;29;20044;-66
2021/01/10 06:59:30;;;;;;;44.63;22.02;;;;;;;0.07;75.88;100861.53;10207103;29;20052;-66
2021/01/10 07:04:34;;;;;;;35.83;17.80;;;;;;;0.04;75.95;100861.44;10176126;29;20048;-66
2021/01/10 07:09:55;;;;;;;53.70;24.50;;;;;;;0.27;75.27;100856.84;10175483;29;20052;-67
2021/01/10 07:15:31;;;;;;;41.25;22.58;;;;;;;0.20;75.32;100863.56;10177889;29;20056;-67
2021/01/10 07:20:39;;;;;;;36.93;20.60;;;;;;;0.25;75.17;100859.38;10160279;29;20056;-67
2021/01/10 07:25:40;;;;;;;;;;;;;;;0.36;74.85;100862.22;10171569;29;20473;-65
2021/01/10 07:30:41;;;;;;;43.30;22.90;;;;;;;-0.03;75.84;100863.00;10171603;29;20424;-66
2021/01/10 07:35:58;;;;;;;38.10;21.73;;;;;;;-0.12;76.05;100873.13;10154713;29;20147;-66
2021/01/10 07:41:28;;;;;;;35.40;20.88;;;;;;;-0.14;76.06;100873.91;10170659;29;20056;-66
2021/01/10 07:46:57;;;;;;;25.25;19.70;;;;;;;0.09;75.50;100889.97;10170320;29;20150;-66
2021/01/10 07:51:59;;;;;;;28.67;20.65;;;;;;;-0.07;75.67;100889.63;10171928;29;20060;-66
2021/01/10 07:57:27;;;;;;;39.38;23.42;;;;;;;-0.01;75.67;100899.22;10174928;29;20051;-66
2021/01/10 08:02:49;;;;;;;32.70;20.92;;;;;;;-0.09;75.83;100895.56;10174383;29;20052;-66
2021/01/10 08:07:53;;;;;;;27.60;18.67;;;;;;;-0.14;76.02;100907.50;10174612;29;20119;-66
2021/01/10 08:12:54;;;;;;;27.52;19.10;;;;;;;-0.10;75.38;100905.03;10174468;29;20446;-66
2021/01/10 08:17:56;;;;;;;29.38;18.83;;;;;;;-0.03;75.44;100912.13;10173735;29;20119;-66
2021/01/10 08:22:58;;;;;;;29.23;19.08;;;;;;;-0.03;75.46;100906.94;10177430;29;20040;-67
2021/01/10 08:27:59;;;;;;;23.63;18.67;;;;;;;0.09;75.29;100916.72;10180275;29;20139;-66
2021/01/10 08:33:00;;;;;;;30.83;20.15;;;;;;;-0.10;75.48;100924.84;10175614;29;20032;-66
2021/01/10 08:38:02;;;;;;;29.75;19.65;;;;;;;-0.06;75.46;100929.25;10173556;29;20107;-66
2021/01/10 08:43:04;;;;;;;25.60;18.23;;;;;;;0.02;75.18;100926.88;10195085;23;20115;-68
2021/01/10 08:48:05;;;;;;;33.38;20.67;;;;;;;0.01;75.19;100930.31;10174616;29;20048;-67
2021/01/10 08:53:08;;;;;;;30.80;19.50;;;;;;;0.12;75.32;100931.44;10149549;29;20055;-67
2021/01/10 08:58:10;;;;;;;32.20;21.42;;;;;;;0.13;74.72;100941.78;10150441;29;20077;-67
2021/01/10 09:03:13;;;;;;;38.30;22.27;;;;;;;0.10;75.29;100944.31;10146224;29;20045;-67
2021/01/10 09:08:23;;;;;;;32.10;19.08;;;;;;;0.07;74.76;100951.13;10142527;29;20502;-67
2021/01/10 09:13:27;;;;;;;26.10;19.40;;;;;;;-0.12;75.60;100945.50;10142966;29;20068;-68
2021/01/10 09:18:34;;;;;;;33.85;19.13;;;;;;;-0.01;75.49;100951.78;10144189;29;20055;-66
2021/01/10 09:23:36;;;;;;;32.20;19.58;;;;;;;0.06;74.88;100951.97;10144097;29;20037;-67
2021/01/10 09:28:40;;;;;;;28.50;17.80;;;;;;;0.08;75.27;100960.63;10144171;29;20044;-66
2021/01/10 09:33:42;;;;;;;22.67;17.38;;;;;;;0.04;75.32;100956.22;10143527;29;20092;-67
2021/01/10 09:38:54;;;;;;;26.42;18.15;;;;;;;0.37;74.49;100951.00;10145215;29;20048;-67
2021/01/10 09:43:58;;;;;;;28.52;18.48;;;;;;;0.55;73.81;100959.22;10142870;29;20049;-68
2021/01/10 09:49:03;;;;;;;29.85;20.20;;;;;;;0.73;72.53;100954.47;10145281;29;20056;-66
2021/01/10 09:54:14;;;;;;;30.88;21.55;;;;;;;0.97;71.80;100953.25;10147561;29;20067;-66
2021/01/10 09:59:36;;;;;;;25.55;18.83;;;;;;;0.96;72.05;100944.59;10184240;29;20072;-67
2021/01/10 10:04:45;;;;;;;21.05;18.02;;;;;;;0.94;71.03;100951.47;10190542;29;20048;-68
2021/01/10 10:09:52;;;;;;;39.13;21.67;;;;;;;0.48;73.36;100944.38;10188084;29;20058;-67
2021/01/10 10:14:59;;;;;;;31.60;21.17;;;;;;;0.62;73.48;100942.09;10151492;29;20052;-67
2021/01/10 10:20:03;;;;;;;;;;;;;;;0.57;73.43;100935.94;10149719;29;20044;-67
2021/01/10 10:25:07;;;;;;;39.97;22.75;;;;;;;0.50;73.60;100935.81;10149716;29;20354;-67
2021/01/10 10:30:09;;;;;;;31.95;22.33;;;;;;;0.54;73.45;100938.50;10149356;29;20513;-67
2021/01/10 10:35:10;;;;;;;44.67;23.70;;;;;;;0.55;73.76;100935.06;10149482;29;20495;-68
2021/01/10 10:40:12;;;;;;;43.72;24.90;;;;;;;0.51;73.69;100931.53;10144075;29;20148;-68
2021/01/10 10:45:15;;;;;;;32.58;22.17;;;;;;;0.73;72.97;100926.00;10143401;29;20052;-67
2021/01/10 10:50:17;;;;;;;41.33;23.85;;;;;;;0.65;73.57;100926.66;10142064;29;20049;-68
2021/01/10 10:55:21;;;;;;;34.08;21.83;;;;;;;1.04;72.25;100918.03;10147539;29;20405;-66
2021/01/10 11:00:24;;;;;;;34.47;22.48;;;;;;;0.77;72.44;100918.31;10144783;29;20048;-66
2021/01/10 11:05:29;;;;;;;34.03;21.63;;;;;;;0.72;73.05;100911.31;10144668;29;20056;-65
2021/01/10 11:10:31;;;;;;;36.75;23.63;;;;;;;1.26;71.47;100907.25;10150411;29;20079;-67
2021/01/10 11:15:32;;;;;;;35.55;22.27;;;;;;;1.33;71.45;100906.53;10148920;29;20052;-66
2021/01/10 11:20:37;;;;;;;21.08;18.88;;;;;;;1.20;71.41;100884.72;10144201;29;20104;-67
2021/01/10 11:25:39;;;;;;;20.60;17.08;;;;;;;2.40;68.05;100873.81;10144346;29;20076;-67
2021/01/10 11:30:41;;;;;;;17.52;15.82;;;;;;;1.51;68.18;100870.63;10145463;29;20070;-67
2021/01/10 11:35:44;;;;;;;20.77;18.00;;;;;;;1.37;70.03;100861.69;10146552;29;20127;-67
2021/01/10 11:40:46;;;;;;;17.70;16.13;;;;;;;1.93;67.42;100869.59;10143932;29;20049;-66
2021/01/10 11:45:49;;;;;;;21.25;19.00;;;;;;;1.91;67.00;100867.84;10141254;29;20053;-67
2021/01/10 11:50:51;;;;;;;21.63;19.27;;;;;;;1.37;68.37;100866.00;10141180;29;20041;-67
2021/01/10 11:55:53;;;;;;;20.48;18.42;;;;;;;0.88;70.32;100865.91;10139756;29;20136;-68
2021/01/10 12:00:56;;;;;;;20.63;18.50;;;;;;;0.79;70.38;100855.38;10140716;29;20463;-67
2021/01/10 12:05:58;;;;;;;22.52;18.65;;;;;;;1.21;69.33;100857.97;10138738;29;20047;-67
2021/01/10 12:11:04;;;;;;;23.30;18.17;;;;;;;1.12;69.85;100855.19;10140112;29;20056;-67
2021/01/10 12:16:06;;;;;;;22.70;18.73;;;;;;;0.96;70.62;100856.59;10140242;29;20048;-67
2021/01/10 12:21:09;;;;;;;21.45;18.30;;;;;;;1.05;70.34;100860.22;10144266;29;20044;-67
2021/01/10 12:26:15;;;;;;;21.30;17.85;;;;;;;1.02;69.52;100853.28;10145788;29;20049;-66
2021/01/10 12:31:17;;;;;;;20.73;18.70;;;;;;;1.14;69.79;100850.03;10147703;29;20052;-66
2021/01/10 12:36:18;;;;;;;22.58;17.75;;;;;;;0.84;69.73;100840.84;10146053;29;20068;-67
2021/01/10 12:41:20;;;;;;;17.65;16.00;;;;;;;1.48;67.24;100844.66;10142022;29;20410;-68
2021/01/10 12:46:28;;;;;;;17.33;15.55;;;;;;;1.56;66.89;100838.75;10144260;29;20083;-66
2021/01/10 12:51:38;;;;;;;16.65;15.15;;;;;;;1.58;66.28;100832.72;10147705;29;20068;-67
2021/01/10 12:56:39;;;;;;;17.25;15.55;;;;;;;1.47;66.59;100835.13;10146634;29;20048;-66
2021/01/10 13:01:41;;;;;;;16.67;14.85;;;;;;;1.29;67.11;100832.22;10147151;29;20045;-66
2021/01/10 13:06:43;;;;;;;17.63;15.77;;;;;;;1.24;66.86;100841.63;10144240;29;20414;-67
2021/01/10 13:11:44;;;;;;;14.32;12.82;;;;;;;1.08;66.27;100832.66;10144416;29;20045;-66
2021/01/10 13:16:48;;;;;;;15.88;14.25;;;;;;;0.92;67.20;100834.06;10142792;29;20052;-67
2021/01/10 13:21:49;;;;;;;15.18;13.77;;;;;;;1.33;65.23;100840.88;10140423;29;20049;-65
2021/01/10 13:26:52;;;;;;;13.93;12.63;;;;;;;1.32;64.43;100831.38;10140639;29;20087;-68
2021/01/10 13:31:54;;;;;;;14.13;12.73;;;;;;;1.34;64.87;100835.75;10139119;29;20040;-67
2021/01/10 13:37:03;;;;;;;16.83;15.07;;;;;;;1.30;65.13;100833.94;10141952;29;20090;-67
2021/01/10 13:42:06;;;;;;;15.35;13.95;;;;;;;1.10;65.52;100835.28;10140789;29;20048;-68
2021/01/10 13:47:08;;;;;;;17.48;15.77;;;;;;;0.88;66.71;100831.38;10140777;29;20056;-67
2021/01/10 13:52:09;;;;;;;17.27;15.63;;;;;;;0.93;66.50;100838.44;10141018;29;20105;-67
2021/01/10 13:57:11;;;;;;;18.02;16.38;;;;;;;0.91;66.27;100839.22;10148636;29;20400;-67
2021/01/10 14:02:12;;;;;;;21.50;17.67;;;;;;;0.50;68.70;100849.59;10179359;29;20082;-67
2021/01/10 14:07:13;;;;;;;24.13;19.30;;;;;;;0.27;69.47;100850.75;10143950;29;20503;-66
2021/01/10 14:12:15;;;;;;;17.60;15.85;;;;;;;0.72;67.48;100848.34;10139954;29;20170;-66
2021/01/10 14:17:16;;;;;;;18.27;16.45;;;;;;;0.62;67.87;100842.09;10140267;29;20117;-66
2021/01/10 14:22:17;;;;;;;21.02;18.67;;;;;;;0.53;68.87;100853.94;10139547;29;20040;-66
2021/01/10 14:27:21;;;;;;;22.80;19.77;;;;;;;0.48;68.80;100846.94;10139200;29;20124;-67
2021/01/10 14:32:22;;;;;;;27.70;21.58;;;;;;;0.49;69.25;100845.25;10139254;29;20573;-66
2021/01/10 14:37:23;;;;;;;26.73;21.05;;;;;;;0.56;68.97;100843.66;10139451;29;20139;-67
2021/01/10 14:42:24;;;;;;;28.30;20.67;;;;;;;0.75;68.02;100840.63;10139417;29;20086;-66
2021/01/10 14:47:26;;;;;;;24.15;19.05;;;;;;;0.68;68.10;100844.81;10138238;29;20085;-67
2021/01/10 14:52:28;;;;;;;22.35;19.77;;;;;;;0.37;69.33;100848.44;10138086;29;20156;-66
2021/01/10 14:57:31;;;;;;;22.90;20.25;;;;;;;0.27;69.63;100851.66;10137024;29;20116;-66
2021/01/10 15:02:34;;;;;;;25.25;19.75;;;;;;;0.09;69.90;100854.69;10138206;29;20044;-66
2021/01/10 15:07:35;;;;;;;23.27;20.83;;;;;;;0.02;69.77;100854.50;10138391;29;20075;-65
2021/01/10 15:12:36;;;;;;;31.00;23.38;;;;;;;-0.17;70.70;100860.94;10136877;29;20057;-66
2021/01/10 15:17:37;;;;;;;28.60;22.25;;;;;;;-0.21;70.81;100857.41;10137905;29;20455;-68
2021/01/10 15:22:39;;;;;;;27.45;21.58;;;;;;;-0.14;70.25;100861.00;10136043;29;20045;-67
2021/01/10 15:27:40;;;;;;;27.30;21.60;;;;;;;0.03;70.07;100862.28;10137380;29;20044;-65
2021/01/10 15:32:41;;;;;;;32.05;23.27;;;;;;;-0.07;70.14;100861.19;10136156;29;20076;-68
2021/01/10 15:37:43;;;;;;;27.45;21.67;;;;;;;-0.13;70.14;100862.75;10137004;29;20075;-67
2021/01/10 15:42:44;;;;;;;27.20;21.52;;;;;;;-0.29;70.58;100869.25;10136315;29;20063;-66
2021/01/10 15:47:46;;;;;;;36.13;23.75;;;;;;;-0.36;70.81;100864.75;10136706;29;20049;-67
2021/01/10 15:52:47;;;;;;;32.35;23.17;;;;;;;-0.59;71.26;100861.56;10136853;29;20168;-66
2021/01/10 15:57:48;;;;;;;38.35;23.73;;;;;;;-0.82;71.94;100853.22;10136950;29;20119;-67
2021/01/10 16:02:49;;;;;;;42.88;25.35;;;;;;;-1.04;72.48;100860.34;10136534;29;20127;-66
2021/01/10 16:07:51;;;;;;;36.65;23.88;;;;;;;-1.02;72.62;100852.63;10136128;29;20071;-67
2021/01/10 16:12:52;;;;;;;36.90;23.88;;;;;;;-1.11;72.73;100849.81;10136212;29;20048;-66
2021/01/10 16:17:53;;;;;;;39.10;25.20;;;;;;;-1.22;73.14;100848.63;10135958;29;20044;-67
2021/01/10 16:22:54;;;;;;;39.50;25.02;;;;;;;-1.31;73.11;100856.97;10136455;29;20128;-68
2021/01/10 16:27:55;;;;;;;43.42;26.02;;;;;;;-1.52;73.45;100852.94;10136578;29;20048;-67
2021/01/10 16:32:57;;;;;;;41.25;25.23;;;;;;;-1.56;73.76;100850.22;10136306;29;20387;-66
2021/01/10 16:38:05;;;;;;;45.17;26.35;;;;;;;-1.36;73.38;100845.66;10135413;29;20131;-66
2021/01/10 16:43:10;;;;;;;43.30;27.90;;;;;;;-1.42;73.25;100845.47;10135435;29;20051;-66
2021/01/10 16:48:13;;;;;;;56.50;30.10;;;;;;;-1.41;73.29;100848.09;10135641;29;20380;-67
2021/01/10 16:53:15;;;;;;;55.78;28.40;;;;;;;-1.39;73.32;100837.81;10134069;29;20049;-67
2021/01/10 16:58:16;;;;;;;52.15;30.88;;;;;;;-1.56;73.74;100835.63;10134257;29;20238;-67
2021/01/10 17:03:17;;;;;;;54.88;31.73;;;;;;;-1.53;73.36;100829.69;10138118;29;20388;-67
2021/01/10 17:08:18;;;;;;;48.85;29.58;;;;;;;-1.30;72.49;100827.78;10142720;29;20045;-67
2021/01/10 17:13:20;;;;;;;45.95;29.90;;;;;;;-1.31;72.35;100826.03;10143754;29;20051;-67
2021/01/10 17:18:21;;;;;;;39.92;27.45;;;;;;;-1.68;73.01;100826.63;10142458;29;20514;-66
2021/01/10 17:23:24;;;;;;;40.30;26.77;;;;;;;-1.75;72.98;100827.28;10125186;29;20076;-67
2021/01/10 17:28:25;;;;;;;46.53;27.58;;;;;;;-1.71;72.86;100826.56;10142809;29;20057;-67
2021/01/10 17:33:29;;;;;;;36.42;25.08;;;;;;;-1.75;72.56;100830.75;10142649;29;20462;-67
2021/01/10 17:38:31;;;;;;;40.15;27.13;;;;;;;-1.69;72.48;100830.91;10142765;29;20527;-67
2021/01/10 17:43:32;;;;;;;32.97;23.92;;;;;;;-1.71;72.12;100830.00;10141614;29;20497;-67
2021/01/10 17:48:36;;;;;;;30.08;23.45;;;;;;;-1.83;72.55;100837.34;10124048;29;20400;-68
2021/01/10 17:53:38;;;;;;;37.50;25.08;;;;;;;-1.99;72.53;100838.59;10141655;29;20115;-67
2021/01/10 17:58:40;;;;;;;32.60;23.33;;;;;;;-1.93;72.53;100851.66;10142189;29;20052;-69
2021/01/10 18:03:41;;;;;;;32.42;23.40;;;;;;;-1.90;72.01;100844.03;10142589;29;20113;-67
2021/01/10 18:08:43;;;;;;;25.10;22.02;;;;;;;-1.87;71.57;100843.25;10125591;29;20080;-68
2021/01/10 18:13:46;;;;;;;29.55;21.35;;;;;;;-2.01;71.94;100841.94;10140578;29;20510;-68
2021/01/10 18:18:47;;;;;;;22.38;19.85;;;;;;;-2.16;71.96;100839.75;10139204;29;20071;-68
2021/01/10 18:23:48;;;;;;;24.27;20.50;;;;;;;-2.32;71.92;100840.94;10139254;29;20041;-67
2021/01/10 18:28:49;;;;;;;23.73;19.52;;;;;;;-2.15;71.54;100847.53;10141445;29;20440;-69
2021/01/10 18:33:51;;;;;;;17.77;15.98;;;;;;;-1.87;69.76;100836.38;10144522;29;20045;-69
2021/01/10 18:38:53;;;;;;;19.20;17.25;;;;;;;-2.08;70.15;100849.47;10144597;29;20462;-70
2021/01/10 18:43:54;;;;;;;19.52;17.45;;;;;;;-1.94;69.54;100838.75;10143392;29;20036;-68
2021/01/10 18:48:56;;;;;;;19.08;17.17;;;;;;;-2.00;69.35;100847.13;10142328;29;20045;-67
2021/01/10 18:53:57;;;;;;;17.15;14.57;;;;;;;-1.96;68.75;100840.38;10147803;29;20533;-69
2021/01/10 18:58:59;;;;;;;15.93;14.43;;;;;;;-2.08;69.07;100840.84;10148091;29;20057;-69
2021/01/10 19:04:00;;;;;;;19.25;15.77;;;;;;;-2.21;69.16;100842.19;10147060;29;20045;-68
2021/01/10 19:09:03;;;;;;;17.15;15.45;;;;;;;-2.08;67.78;100839.19;10147872;29;20108;-70
2021/01/10 19:14:07;;;;;;;17.23;15.63;;;;;;;-2.16;68.00;100834.59;10149668;29;20036;-69
2021/01/10 19:19:09;;;;;;;16.65;15.05;;;;;;;-2.49;69.51;100826.63;10147349;29;20048;-71
2021/01/10 19:24:11;;;;;;;18.85;16.85;;;;;;;-2.84;70.59;100824.59;10148228;29;20115;-69
2021/01/10 19:29:14;;;;;;;22.73;18.88;;;;;;;-3.15;72.65;100824.34;10146524;29;20058;-69
2021/01/10 19:34:16;;;;;;;20.27;18.33;;;;;;;-3.15;72.45;100824.34;10144423;29;20068;-69
2021/01/10 19:39:19;;;;;;;20.80;18.55;;;;;;;-2.99;71.92;100829.22;10142176;29;20052;-69
2021/01/10 19:44:21;;;;;;;20.40;18.33;;;;;;;-3.19;72.06;100832.75;10138864;29;20451;-69
2021/01/10 19:49:22;;;;;;;24.65;18.77;;;;;;;-3.04;71.89;100841.03;10139454;29;20083;-68
2021/01/10 19:54:25;;;;;;;23.08;17.35;;;;;;;-2.54;70.54;100842.78;10139423;29;20068;-70
2021/01/10 19:59:27;;;;;;;20.90;18.63;;;;;;;-2.68;71.03;100838.88;10140267;29;20077;-69
2021/01/10 20:04:29;;;;;;;22.50;18.33;;;;;;;-2.78;70.94;100841.97;10142576;29;20068;-69
2021/01/10 20:09:30;;;;;;;19.13;17.23;;;;;;;-2.81;71.13;100840.16;10142395;29;20112;-70
2021/01/10 20:14:32;;;;;;;19.55;16.20;;;;;;;-2.86;70.08;100830.53;10140718;29;20515;-69
2021/01/10 20:19:47;;;;;;;18.63;15.73;;;;;;;-3.09;70.74;100834.88;10140144;29;20049;-68
2021/01/10 20:24:48;;;;;;;17.13;15.52;;;;;;;-3.10;70.62;100828.84;10139094;29;20041;-69
2021/01/10 20:29:49;;;;;;;16.55;14.88;;;;;;;-3.09;70.64;100829.72;10139688;29;20053;-69
2021/01/10 20:34:52;;;;;;;16.88;15.18;;;;;;;-2.89;69.49;100830.41;10139235;29;20128;-69
2021/01/10 20:39:53;;;;;;;16.50;14.57;;;;;;;-3.05;69.95;100829.00;10184230;23;20419;-65
2021/01/10 20:44:54;;;;;;;16.52;14.93;;;;;;;-3.37;70.78;100838.09;10182680;29;20104;-65
2021/01/10 20:49:56;;;;;;;17.85;14.63;;;;;;;-3.21;70.37;100840.44;10159614;29;20070;-65
2021/01/10 20:54:57;;;;;;;15.40;13.95;;;;;;;-3.38;70.70;100832.09;10142484;29;20175;-65
2021/01/10 20:59:58;;;;;;;16.60;14.98;;;;;;;-3.15;70.53;100832.91;10143097;29;20053;-65
2021/01/10 21:05:01;;;;;;;20.65;16.88;;;;;;;-3.06;70.29;100822.09;10148721;29;20047;-66
2021/01/10 21:10:03;;;;;;;19.20;15.52;;;;;;;-3.02;69.71;100811.09;10141118;29;20422;-65
2021/01/10 21:15:05;;;;;;;15.98;14.38;;;;;;;-3.28;70.08;100807.59;10146391;29;20676;-65
2021/01/10 21:20:08;;;;;;;17.23;15.27;;;;;;;-3.83;71.71;100801.28;10144070;29;20056;-65
2021/01/10 21:25:10;;;;;;;18.88;14.45;;;;;;;-3.73;71.58;100806.75;10144304;29;20044;-66
2021/01/10 21:30:12;;;;;;;16.13;14.45;;;;;;;-3.59;71.14;100801.31;10141511;29;20108;-66
2021/01/10 21:35:25;;;;;;;14.88;13.45;;;;;;;-3.60;71.25;100799.56;10141670;29;20048;-66
2021/01/10 21:40:26;;;;;;;14.52;13.02;;;;;;;-3.69;70.83;100804.38;10141000;29;20135;-67
2021/01/10 21:45:27;;;;;;;14.57;13.02;;;;;;;-3.48;70.46;100804.31;10141964;29;20040;-65
2021/01/10 21:50:29;;;;;;;14.77;13.43;;;;;;;-3.09;68.77;100797.16;10140106;29;20507;-64
2021/01/10 21:55:30;;;;;;;14.75;13.27;;;;;;;-3.51;69.85;100804.19;10139240;29;20040;-65
2021/01/10 22:00:31;;;;;;;14.40;12.93;;;;;;;-3.60;70.26;100802.13;10140649;29;20048;-66
2021/01/10 22:05:33;;;;;;;13.63;12.15;;;;;;;-3.37;70.00;100802.09;10140302;29;20048;-66
2021/01/10 22:10:34;;;;;;;15.50;12.40;;;;;;;-3.32;69.58;100804.06;10140594;29;20053;-65
2021/01/10 22:15:35;;;;;;;14.07;12.77;;;;;;;-3.54;70.20;100806.66;10140893;29;20431;-65
2021/01/10 22:20:38;;;;;;;14.20;12.75;;;;;;;-3.19;68.74;100791.63;10139725;29;20337;-66
2021/01/10 22:25:40;;;;;;;13.32;11.95;;;;;;;-3.60;69.58;100789.28;10138811;29;20075;-66
2021/01/10 22:30:41;;;;;;;12.93;11.70;;;;;;;-3.21;68.80;100783.84;10138915;29;20107;-65
2021/01/10 22:35:43;;;;;;;14.02;12.63;;;;;;;-3.28;68.78;100787.00;10139991;29;20410;-65
2021/01/10 22:40:44;;;;;;;13.52;11.55;;;;;;;-3.15;68.07;100783.19;10138941;29;20093;-65
2021/01/10 22:45:45;;;;;;;13.65;12.25;;;;;;;-3.35;68.98;100774.78;10138918;29;20119;-64
2021/01/10 22:50:46;;;;;;;14.85;12.98;;;;;;;-3.32;69.04;100772.28;10139058;29;20057;-67
2021/01/10 22:55:48;;;;;;;12.93;11.63;;;;;;;-3.32;69.08;100774.88;10138603;29;20049;-65